Burdine, Kentucky
Current Conditions -  °F | °C
As of 6:15 AM on Thursday 23 Oct 2014 (Local Time) from KLNP Reporting Station
Overcast Overcast  
Wind Chill: 37°   Ceiling: 800
Heat Index: 41°   Visibility: 10mi
Dew Point: 41°   Wind: 6mph
Humidity: 100%   Direction: 350°N
Pressure: 30.2"   Gusts: NA
Location:  37.19°N, 82.6°W
Report Text: KLNP 231015Z AUTO 35005KT 10SM BKN008 OVC012 05/05 A3020 RMK AO2
Loading
Personal Weather Stations






























Interactive Weather Map
Tropical Storm Tracking
New forecast layout! Learn more

10-Day Weather Forecast

Advertisements
Track Severe Weather on mobile